createdAt,value
2023-03-19T00:02:17.215Z,7.53
2023-03-19T00:04:44.940Z,7.78
2023-03-19T00:07:11.667Z,9.18
2023-03-19T00:09:38.555Z,7.82
2023-03-19T00:12:05.982Z,8.52
2023-03-19T00:14:32.652Z,7.60
2023-03-19T00:16:59.343Z,7.32
2023-03-19T00:19:26.456Z,6.93
2023-03-19T00:21:53.352Z,8.15
2023-03-19T00:24:20.627Z,7.28
2023-03-19T00:26:47.882Z,8.25
2023-03-19T00:29:14.799Z,8.10
2023-03-19T00:31:41.624Z,7.78
2023-03-19T00:34:09.973Z,8.50
2023-03-19T00:36:37.277Z,7.85
2023-03-19T00:39:04.649Z,8.38
2023-03-19T00:41:31.341Z,8.25
2023-03-19T00:43:58.737Z,7.43
2023-03-19T00:46:26.379Z,7.60
2023-03-19T00:48:55.472Z,8.13
2023-03-19T00:51:23.427Z,7.90
2023-03-19T00:53:50.976Z,8.00
2023-03-19T00:56:18.343Z,7.85
2023-03-19T00:58:45.781Z,8.57
2023-03-19T01:01:14.443Z,8.57
2023-03-19T01:03:41.480Z,8.57
2023-03-19T01:06:08.203Z,9.10
2023-03-19T01:08:35.355Z,8.50
2023-03-19T01:11:20.387Z,8.23
2023-03-19T01:13:47.984Z,8.82
2023-03-19T01:16:14.610Z,9.07
2023-03-19T01:18:41.523Z,8.00
2023-03-19T01:21:08.338Z,8.32
2023-03-19T01:23:35.026Z,8.32
2023-03-19T01:26:01.695Z,8.23
2023-03-19T01:28:28.331Z,8.63
2023-03-19T01:30:59.907Z,9.10
2023-03-19T01:33:26.758Z,7.85
2023-03-19T01:35:53.413Z,8.50
2023-03-19T01:38:20.016Z,8.43
2023-03-19T01:40:48.482Z,7.70
2023-03-19T01:43:18.697Z,7.80
2023-03-19T01:45:51.366Z,7.43
2023-03-19T01:48:38.509Z,7.40
2023-03-19T01:51:07.619Z,8.20
2023-03-19T01:53:35.542Z,8.10
2023-03-19T01:56:12.138Z,7.80
2023-03-19T01:58:43.720Z,8.10
2023-03-19T02:01:10.624Z,7.82
2023-03-19T02:03:39.326Z,8.52
2023-03-19T02:06:06.416Z,7.95
2023-03-19T02:08:34.320Z,8.10
2023-03-19T02:11:02.062Z,8.60
2023-03-19T02:13:28.940Z,7.63
2023-03-19T02:15:55.760Z,8.38
2023-03-19T02:18:24.248Z,8.05
2023-03-19T02:21:16.291Z,8.05
2023-03-19T02:24:05.230Z,8.10
2023-03-19T02:26:32.480Z,7.13
2023-03-19T02:28:59.381Z,8.05
2023-03-19T02:31:26.215Z,7.47
2023-03-19T02:34:01.104Z,6.82
2023-03-19T02:36:37.500Z,6.95
2023-03-19T02:39:08.593Z,6.80
2023-03-19T02:41:39.588Z,7.90
2023-03-19T02:44:07.852Z,7.35
2023-03-19T02:46:34.601Z,7.38
2023-03-19T02:49:01.652Z,7.75
2023-03-19T02:51:28.305Z,7.40
2023-03-19T02:53:55.142Z,7.55
2023-03-19T02:56:21.868Z,7.80
2023-03-19T02:58:48.482Z,7.05
2023-03-19T03:01:15.665Z,8.23
2023-03-19T03:03:42.679Z,8.13
2023-03-19T03:06:09.309Z,6.82
2023-03-19T03:08:36.743Z,8.57
2023-03-19T03:11:03.523Z,8.73
2023-03-19T03:13:30.161Z,8.05
2023-03-19T03:15:56.859Z,8.20
2023-03-19T03:18:23.536Z,9.00
2023-03-19T03:20:50.261Z,7.30
2023-03-19T03:23:17.187Z,8.40
2023-03-19T03:25:43.832Z,7.63
2023-03-19T03:28:10.527Z,8.75
2023-03-19T03:30:38.108Z,8.88
2023-03-19T03:33:04.878Z,7.60
2023-03-19T03:35:31.562Z,7.68
2023-03-19T03:37:59.106Z,8.00
2023-03-19T03:40:25.756Z,8.60
2023-03-19T03:42:52.675Z,8.07
2023-03-19T03:45:19.375Z,8.52
2023-03-19T03:47:46.257Z,8.50
2023-03-19T03:50:13.844Z,8.82
2023-03-19T03:52:42.033Z,8.55
2023-03-19T03:55:09.343Z,8.55
2023-03-19T03:57:36.268Z,9.93
2023-03-19T04:00:04.021Z,8.65
2023-03-19T04:02:30.822Z,8.80
2023-03-19T04:04:57.757Z,8.07
2023-03-19T04:07:24.381Z,9.10
2023-03-19T04:09:51.049Z,8.90
2023-03-19T04:12:17.781Z,9.05
2023-03-19T04:14:44.532Z,7.85
2023-03-19T04:17:11.229Z,9.50
2023-03-19T04:19:37.859Z,8.82
2023-03-19T04:22:04.593Z,9.50
2023-03-19T04:24:31.225Z,8.63
2023-03-19T04:26:57.859Z,10.35
2023-03-19T04:29:24.510Z,8.23
2023-03-19T04:31:51.362Z,8.50
2023-03-19T04:34:18.148Z,7.72
2023-03-19T04:36:44.828Z,10.20
2023-03-19T04:39:11.517Z,9.10
2023-03-19T04:41:38.629Z,9.70
2023-03-19T04:44:05.827Z,10.18
2023-03-19T04:46:32.510Z,9.90
2023-03-19T04:48:59.827Z,9.07
2023-03-19T04:51:26.506Z,9.27
2023-03-19T04:53:53.147Z,9.48
2023-03-19T04:56:19.841Z,10.10
2023-03-19T04:58:46.601Z,10.40
2023-03-19T05:01:13.365Z,10.15
2023-03-19T05:03:40.075Z,9.38
2023-03-19T05:06:06.847Z,9.73
2023-03-19T05:08:33.805Z,10.55
2023-03-19T05:11:00.753Z,9.77
2023-03-19T05:13:27.418Z,10.30
2023-03-19T05:15:55.430Z,9.20
2023-03-19T05:18:23.032Z,9.35
2023-03-19T05:20:49.690Z,9.38
2023-03-19T05:23:17.826Z,9.35
2023-03-19T05:25:44.579Z,9.45
2023-03-19T05:28:11.476Z,9.48
2023-03-19T05:30:38.367Z,9.80
2023-03-19T05:33:05.657Z,9.15
2023-03-19T05:35:32.447Z,9.70
2023-03-19T05:37:59.155Z,9.82
2023-03-19T05:40:25.913Z,10.25
2023-03-19T05:42:52.520Z,9.65
2023-03-19T05:45:19.537Z,9.18
2023-03-19T05:47:50.273Z,9.25
2023-03-19T05:50:18.692Z,8.80
2023-03-19T05:52:45.406Z,10.07
2023-03-19T05:55:12.462Z,10.07
2023-03-19T05:57:39.189Z,9.05
2023-03-19T06:00:08.070Z,10.00
2023-03-19T06:02:36.449Z,10.25
2023-03-19T06:05:03.800Z,9.55
2023-03-19T06:07:30.489Z,10.40
2023-03-19T06:09:57.515Z,9.80
2023-03-19T06:12:24.808Z,9.55
2023-03-19T06:14:51.924Z,9.80
2023-03-19T06:17:18.731Z,9.38
2023-03-19T06:19:45.368Z,10.32
2023-03-19T06:22:12.409Z,9.13
2023-03-19T06:24:39.612Z,9.85
2023-03-19T06:27:09.480Z,9.00
2023-03-19T06:29:38.694Z,9.55
2023-03-19T06:32:05.921Z,10.43
2023-03-19T06:34:32.738Z,10.65
2023-03-19T06:36:59.985Z,8.98
2023-03-19T06:39:29.460Z,8.90
2023-03-19T06:41:56.771Z,9.20
2023-03-19T06:44:25.072Z,9.27
2023-03-19T06:46:51.774Z,9.45
2023-03-19T06:49:19.255Z,8.85
2023-03-19T06:51:46.074Z,9.63
2023-03-19T06:54:12.734Z,9.20
2023-03-19T06:56:39.446Z,8.82
2023-03-19T06:59:06.169Z,8.15
2023-03-19T07:01:32.845Z,8.75
2023-03-19T07:03:59.579Z,8.73
2023-03-19T07:06:26.341Z,8.57
2023-03-19T07:08:52.995Z,9.15
2023-03-19T07:11:19.655Z,8.45
2023-03-19T07:13:46.584Z,8.23
2023-03-19T07:16:13.288Z,8.82
2023-03-19T07:18:39.964Z,8.40
2023-03-19T07:21:06.634Z,8.82
2023-03-19T07:23:33.389Z,8.75
2023-03-19T07:26:00.315Z,8.98
2023-03-19T07:28:27.026Z,8.45
2023-03-19T07:30:54.379Z,8.68
2023-03-19T07:33:21.970Z,8.13
2023-03-19T07:35:48.980Z,8.50
2023-03-19T07:38:15.812Z,8.30
2023-03-19T07:40:51.358Z,8.35
2023-03-19T07:43:26.083Z,8.20
2023-03-19T07:45:53.026Z,8.60
2023-03-19T07:48:19.790Z,8.77
2023-03-19T07:50:46.728Z,8.55
2023-03-19T07:53:13.368Z,8.18
2023-03-19T07:55:39.983Z,8.95
2023-03-19T07:58:06.793Z,8.00
2023-03-19T08:00:33.686Z,8.60
2023-03-19T08:03:00.659Z,8.02
2023-03-19T08:05:27.608Z,7.28
2023-03-19T08:07:54.256Z,7.53
2023-03-19T08:10:21.830Z,7.07
2023-03-19T08:12:48.854Z,6.85
2023-03-19T08:15:15.853Z,6.97
2023-03-19T08:17:42.495Z,6.50
2023-03-19T08:20:12.431Z,7.32
2023-03-19T08:22:40.551Z,6.35
2023-03-19T08:25:07.932Z,6.85
2023-03-19T08:27:36.092Z,6.30
2023-03-19T08:30:07.359Z,6.00
2023-03-19T08:32:34.567Z,6.30
2023-03-19T08:35:01.377Z,7.00
2023-03-19T08:37:28.065Z,5.73
2023-03-19T08:39:54.712Z,5.80
2023-03-19T08:42:22.627Z,5.73
2023-03-19T08:44:50.125Z,5.30
2023-03-19T08:47:16.774Z,5.53
2023-03-19T08:49:43.463Z,5.57
2023-03-19T08:52:10.188Z,5.50
2023-03-19T08:54:37.003Z,4.90
2023-03-19T08:57:03.794Z,4.80
2023-03-19T08:59:33.790Z,4.53
2023-03-19T09:02:01.613Z,4.20
2023-03-19T09:04:28.781Z,4.73
2023-03-19T09:06:56.068Z,4.87
2023-03-19T09:09:24.454Z,4.00
2023-03-19T09:11:51.445Z,4.30
2023-03-19T09:14:20.114Z,3.83
2023-03-19T09:16:46.994Z,4.47
2023-03-19T09:19:13.667Z,4.70
2023-03-19T09:21:40.424Z,5.90
2023-03-19T09:24:07.523Z,5.30
2023-03-19T09:26:34.185Z,5.70
2023-03-19T09:29:02.092Z,5.10
2023-03-19T09:31:29.905Z,5.30
2023-03-19T09:33:56.769Z,5.10
2023-03-19T09:36:23.527Z,4.97
2023-03-19T09:38:50.182Z,7.30
2023-03-19T09:41:22.466Z,5.90
2023-03-19T09:44:04.456Z,5.53
2023-03-19T09:46:44.337Z,5.53
2023-03-19T09:49:24.879Z,5.83
2023-03-19T09:52:20.532Z,5.70
2023-03-19T09:54:52.477Z,6.30
2023-03-19T09:57:19.628Z,6.05
2023-03-19T09:59:47.049Z,6.18
2023-03-19T10:02:32.144Z,5.60
2023-03-19T10:05:15.327Z,5.47
2023-03-19T10:07:50.913Z,5.90
2023-03-19T10:10:52.028Z,5.50
2023-03-19T10:13:39.581Z,5.53
2023-03-19T10:16:13.471Z,5.47
2023-03-19T10:18:46.540Z,5.10
2023-03-19T10:21:18.019Z,4.97
2023-03-19T10:23:46.842Z,4.85
2023-03-19T10:26:16.791Z,4.70
2023-03-19T10:28:47.328Z,4.95
2023-03-19T10:31:25.835Z,4.43
2023-03-19T10:34:04.638Z,4.55
2023-03-19T10:36:36.160Z,4.97
2023-03-19T10:39:06.796Z,5.32
2023-03-19T10:41:57.397Z,4.78
2023-03-19T10:45:06.295Z,5.63
2023-03-19T10:47:39.141Z,5.20
2023-03-19T10:50:06.875Z,5.05
2023-03-19T10:52:37.919Z,5.45
2023-03-19T10:55:15.701Z,5.07
2023-03-19T10:57:43.918Z,5.30
2023-03-19T11:00:18.283Z,5.50
2023-03-19T11:02:53.168Z,5.40
2023-03-19T11:05:24.437Z,6.25
2023-03-19T11:07:57.716Z,5.18
2023-03-19T11:10:27.148Z,5.53
2023-03-19T11:13:00.623Z,5.82
2023-03-19T11:15:38.172Z,5.10
2023-03-19T11:18:16.973Z,4.90
2023-03-19T11:21:01.117Z,5.18
2023-03-19T11:23:37.593Z,5.30
2023-03-19T11:26:04.367Z,5.00
2023-03-19T11:28:34.409Z,5.00
2023-03-19T11:31:25.325Z,5.60
2023-03-19T11:34:07.850Z,5.80
2023-03-19T11:36:56.958Z,5.05
2023-03-19T11:39:28.724Z,4.90
2023-03-19T11:42:01.150Z,5.38
2023-03-19T11:44:52.064Z,5.10
2023-03-19T11:47:28.207Z,5.72
2023-03-19T11:50:25.162Z,5.55
2023-03-19T11:52:57.590Z,6.38
2023-03-19T11:55:33.328Z,5.68
2023-03-19T11:58:33.883Z,5.85
2023-03-19T12:01:18.134Z,5.20
2023-03-19T12:04:20.401Z,5.85
2023-03-19T12:06:53.872Z,5.97
2023-03-19T12:09:56.010Z,5.97
2023-03-19T12:12:33.178Z,6.03
2023-03-19T12:15:20.376Z,5.28
2023-03-19T12:18:14.182Z,5.47
2023-03-19T12:20:59.448Z,5.43
2023-03-19T12:24:00.498Z,4.70
2023-03-19T12:26:47.495Z,5.50
2023-03-19T12:29:41.024Z,5.88
2023-03-19T12:32:14.650Z,6.10
2023-03-19T12:34:58.789Z,5.68
2023-03-19T12:37:50.512Z,5.55
2023-03-19T12:40:28.498Z,6.25
2023-03-19T12:42:58.925Z,5.65
2023-03-19T12:45:36.882Z,5.93
2023-03-19T12:48:16.853Z,5.95
2023-03-19T12:50:49.907Z,5.47
2023-03-19T12:53:41.755Z,5.72
2023-03-19T12:56:43.068Z,5.82
2023-03-19T12:59:09.856Z,5.85
2023-03-19T13:01:42.928Z,5.43
2023-03-19T13:04:23.641Z,5.93
2023-03-19T13:06:57.820Z,5.70
2023-03-19T13:09:38.650Z,5.60
2023-03-19T13:12:17.567Z,5.90
2023-03-19T13:15:13.359Z,5.95
2023-03-19T13:18:01.643Z,5.85
2023-03-19T13:21:13.052Z,6.05
2023-03-19T13:23:42.945Z,6.43
2023-03-19T13:26:12.551Z,6.20
2023-03-19T13:28:55.256Z,7.72
2023-03-19T13:31:25.566Z,6.22
2023-03-19T13:34:04.719Z,7.63
2023-03-19T13:36:37.997Z,6.90
2023-03-19T13:39:11.454Z,7.22
2023-03-19T13:41:39.684Z,7.18
2023-03-19T13:44:21.477Z,5.50
2023-03-19T13:46:49.558Z,5.75
2023-03-19T13:49:27.935Z,5.55
2023-03-19T13:51:58.448Z,5.40
2023-03-19T13:54:44.044Z,5.60
2023-03-19T13:57:14.641Z,5.20
2023-03-19T13:59:44.321Z,5.93
2023-03-19T14:02:22.908Z,5.68
2023-03-19T14:05:04.096Z,5.80
2023-03-19T14:07:42.332Z,6.28
2023-03-19T14:10:20.353Z,5.80
2023-03-19T14:12:47.626Z,6.38
2023-03-19T14:15:23.399Z,5.55
2023-03-19T14:18:01.591Z,5.25
2023-03-19T14:20:39.199Z,5.60
2023-03-19T14:23:11.236Z,4.90
2023-03-19T14:26:02.468Z,4.78
2023-03-19T14:28:36.769Z,4.93
2023-03-19T14:31:05.407Z,5.00
2023-03-19T14:33:34.727Z,5.53
2023-03-19T14:36:05.114Z,4.88
2023-03-19T14:38:52.745Z,5.07
2023-03-19T14:41:22.590Z,5.65
2023-03-19T14:43:58.872Z,5.05
2023-03-19T14:46:49.722Z,5.30
2023-03-19T14:49:31.532Z,5.00
2023-03-19T14:52:07.064Z,4.78
2023-03-19T14:54:47.948Z,5.10
2023-03-19T14:57:19.955Z,5.05
2023-03-19T14:59:48.478Z,5.18
2023-03-19T15:02:39.194Z,4.90
2023-03-19T15:05:07.900Z,5.00
2023-03-19T15:07:39.461Z,5.30
2023-03-19T15:10:13.545Z,5.20
2023-03-19T15:12:58.202Z,5.15
2023-03-19T15:15:42.941Z,4.93
2023-03-19T15:18:12.254Z,5.03
2023-03-19T15:20:47.365Z,5.13
2023-03-19T15:23:26.875Z,5.00
2023-03-19T15:26:01.254Z,4.75
2023-03-19T15:28:53.869Z,5.40
2023-03-19T15:31:37.504Z,4.75
2023-03-19T15:34:26.144Z,4.90
2023-03-19T15:37:01.204Z,4.20
2023-03-19T15:39:34.020Z,4.60
2023-03-19T15:42:02.257Z,4.05
2023-03-19T15:44:36.566Z,4.20
2023-03-19T15:47:06.635Z,4.10
2023-03-19T15:49:40.252Z,4.10
2023-03-19T15:52:11.390Z,4.40
2023-03-19T15:54:38.552Z,4.30
2023-03-19T15:57:07.415Z,4.32
2023-03-19T15:59:34.330Z,4.60
2023-03-19T16:02:03.424Z,4.63
2023-03-19T16:04:38.525Z,4.60
2023-03-19T16:07:46.724Z,4.30
2023-03-19T16:10:38.232Z,4.70
2023-03-19T16:13:31.808Z,4.38
2023-03-19T16:16:05.947Z,4.40
2023-03-19T16:19:02.747Z,4.60
2023-03-19T16:21:37.352Z,4.15
2023-03-19T16:24:12.221Z,4.78
2023-03-19T16:26:42.829Z,4.47
2023-03-19T16:29:26.254Z,4.32
2023-03-19T16:32:24.136Z,4.50
2023-03-19T16:34:51.876Z,4.10
2023-03-19T16:37:38.138Z,4.68
2023-03-19T16:40:13.962Z,4.80
2023-03-19T16:42:45.125Z,4.82
2023-03-19T16:45:14.806Z,4.53
2023-03-19T16:47:49.053Z,4.32
2023-03-19T16:50:17.344Z,4.47
2023-03-19T16:52:45.522Z,4.90
2023-03-19T16:55:22.572Z,4.80
2023-03-19T16:58:01.742Z,5.22
2023-03-19T17:00:32.052Z,5.40
2023-03-19T17:02:59.512Z,4.63
2023-03-19T17:05:27.691Z,4.80
2023-03-19T17:07:57.192Z,4.50
2023-03-19T17:10:27.713Z,3.92
2023-03-19T17:12:55.928Z,4.55
2023-03-19T17:15:38.353Z,4.95
2023-03-19T17:18:16.474Z,4.32
2023-03-19T17:20:54.496Z,4.53
2023-03-19T17:23:24.384Z,4.47
2023-03-19T17:25:51.867Z,4.60
2023-03-19T17:28:18.533Z,4.57
2023-03-19T17:30:46.029Z,4.90
2023-03-19T17:33:28.111Z,5.00
2023-03-19T17:35:56.404Z,4.93
2023-03-19T17:38:27.908Z,4.80
2023-03-19T17:40:54.552Z,4.93
2023-03-19T17:43:21.205Z,5.15
2023-03-19T17:45:49.187Z,5.13
2023-03-19T17:48:23.643Z,4.93
2023-03-19T17:50:51.237Z,5.00
2023-03-19T17:53:18.643Z,5.10
2023-03-19T17:55:46.801Z,5.50
2023-03-19T17:58:22.431Z,4.95
2023-03-19T18:00:50.358Z,5.30
2023-03-19T18:03:20.684Z,5.15
2023-03-19T18:05:47.730Z,5.25
2023-03-19T18:08:17.272Z,5.00
2023-03-19T18:10:43.952Z,5.45
2023-03-19T18:13:11.290Z,5.18
2023-03-19T18:15:40.186Z,5.38
2023-03-19T18:18:11.154Z,5.38
2023-03-19T18:20:39.628Z,5.32
2023-03-19T18:23:06.813Z,5.80
2023-03-19T18:25:35.505Z,7.50
2023-03-19T18:28:04.126Z,5.90
2023-03-19T18:30:33.378Z,5.53
2023-03-19T18:33:03.456Z,5.75
2023-03-19T18:35:33.733Z,6.10
2023-03-19T18:38:01.045Z,5.70
2023-03-19T18:40:30.240Z,7.85
2023-03-19T18:42:57.181Z,5.75
2023-03-19T18:45:27.482Z,5.95
2023-03-19T18:47:54.925Z,5.65
2023-03-19T18:50:23.353Z,6.00
2023-03-19T18:52:51.454Z,6.32
2023-03-19T18:55:18.937Z,5.65
2023-03-19T18:57:54.101Z,5.82
2023-03-19T19:00:29.665Z,6.45
2023-03-19T19:02:57.836Z,6.03
2023-03-19T19:05:27.748Z,6.45
2023-03-19T19:07:56.737Z,5.63
2023-03-19T19:10:25.010Z,5.97
2023-03-19T19:12:54.176Z,5.38
2023-03-19T19:15:35.555Z,5.72
2023-03-19T19:18:17.830Z,5.57
2023-03-19T19:20:46.020Z,5.40
2023-03-19T19:23:13.908Z,6.43
2023-03-19T19:25:41.594Z,5.22
2023-03-19T19:28:30.655Z,5.60
2023-03-19T19:30:59.722Z,6.20
2023-03-19T19:33:35.440Z,6.72
2023-03-19T19:36:02.949Z,6.45
2023-03-19T19:38:30.345Z,7.20
2023-03-19T19:41:00.029Z,5.70
2023-03-19T19:43:31.148Z,6.00
2023-03-19T19:45:59.064Z,6.13
2023-03-19T19:48:28.440Z,5.80
2023-03-19T19:50:56.222Z,6.20
2023-03-19T19:53:25.242Z,6.90
2023-03-19T19:55:52.692Z,6.70
2023-03-19T19:58:27.096Z,6.50
2023-03-19T20:01:03.186Z,6.07
2023-03-19T20:03:32.544Z,6.22
2023-03-19T20:06:00.304Z,6.63
2023-03-19T20:08:27.161Z,5.95
2023-03-19T20:10:54.913Z,6.05
2023-03-19T20:13:27.870Z,6.38
2023-03-19T20:15:56.997Z,6.80
2023-03-19T20:18:25.272Z,8.00
2023-03-19T20:20:52.883Z,7.22
2023-03-19T20:23:20.740Z,7.03
2023-03-19T20:25:47.696Z,6.03
2023-03-19T20:28:24.539Z,6.20
2023-03-19T20:30:53.909Z,6.90
2023-03-19T20:33:21.796Z,7.63
2023-03-19T20:35:49.157Z,7.03
2023-03-19T20:38:16.090Z,8.40
2023-03-19T20:40:51.505Z,8.82
2023-03-19T20:43:28.107Z,7.82
2023-03-19T20:45:57.067Z,8.93
2023-03-19T20:48:24.869Z,9.30
2023-03-19T20:50:52.267Z,8.80
2023-03-19T20:53:19.520Z,9.27
2023-03-19T20:55:47.758Z,8.88
2023-03-19T20:58:34.436Z,8.10
2023-03-19T21:01:02.758Z,8.10
2023-03-19T21:03:31.670Z,8.80
2023-03-19T21:06:02.513Z,8.13
2023-03-19T21:08:35.634Z,8.20
2023-03-19T21:11:02.847Z,8.60
2023-03-19T21:13:30.229Z,7.43
2023-03-19T21:15:57.180Z,7.88
2023-03-19T21:18:23.891Z,7.32
2023-03-19T21:20:54.591Z,8.00
2023-03-19T21:23:35.228Z,7.20
2023-03-19T21:26:19.463Z,7.15
2023-03-19T21:28:48.887Z,7.60
2023-03-19T21:31:20.804Z,8.88
2023-03-19T21:33:51.583Z,10.40
2023-03-19T21:36:18.884Z,9.20
2023-03-19T21:38:46.037Z,9.40
2023-03-19T21:41:26.055Z,8.60
2023-03-19T21:43:56.068Z,8.95
2023-03-19T21:46:26.402Z,8.43
2023-03-19T21:48:54.895Z,7.90
2023-03-19T21:51:22.538Z,7.53
2023-03-19T21:53:49.288Z,8.90
2023-03-19T21:56:23.414Z,8.02
2023-03-19T21:58:53.390Z,9.23
2023-03-19T22:01:25.273Z,9.68
2023-03-19T22:03:53.010Z,10.05
2023-03-19T22:06:19.912Z,9.65
2023-03-19T22:08:48.234Z,9.57
2023-03-19T22:11:30.378Z,9.50
2023-03-19T22:14:04.108Z,9.45
2023-03-19T22:16:32.235Z,10.05
2023-03-19T22:18:58.994Z,9.63
2023-03-19T22:21:25.871Z,10.48
2023-03-19T22:23:52.583Z,9.63
2023-03-19T22:26:32.768Z,10.20
2023-03-19T22:29:02.676Z,9.75
2023-03-19T22:31:29.992Z,10.52
2023-03-19T22:33:56.826Z,9.02
2023-03-19T22:36:23.574Z,9.38
2023-03-19T22:38:50.338Z,9.35
2023-03-19T22:41:35.178Z,8.85
2023-03-19T22:44:04.885Z,9.07
2023-03-19T22:46:32.237Z,10.10
2023-03-19T22:48:58.961Z,9.85
2023-03-19T22:51:27.416Z,9.65
2023-03-19T22:53:55.121Z,10.25
2023-03-19T22:56:22.601Z,10.35
2023-03-19T22:58:49.318Z,9.80
2023-03-19T23:01:28.863Z,9.77
2023-03-19T23:03:56.691Z,8.98
2023-03-19T23:06:30.764Z,8.95
2023-03-19T23:08:58.071Z,9.88
2023-03-19T23:11:24.818Z,9.75
2023-03-19T23:13:51.689Z,10.27
2023-03-19T23:16:23.870Z,9.48
2023-03-19T23:18:51.902Z,9.05
2023-03-19T23:21:19.744Z,8.40
2023-03-19T23:23:46.664Z,8.48
2023-03-19T23:26:23.704Z,8.27
2023-03-19T23:28:50.509Z,8.25
2023-03-19T23:31:17.242Z,8.05
2023-03-19T23:33:46.028Z,8.45
2023-03-19T23:36:12.905Z,7.80
2023-03-19T23:38:39.639Z,7.88
2023-03-19T23:41:07.238Z,7.68
2023-03-19T23:43:34.194Z,7.28
2023-03-19T23:46:01.043Z,7.30
2023-03-19T23:48:41.172Z,7.50
2023-03-19T23:51:14.342Z,7.05
2023-03-19T23:53:42.009Z,6.93
2023-03-19T23:56:24.712Z,7.43
2023-03-19T23:58:54.174Z,6.47
